createdAt,value
2019-04-29T00:00:14.276Z,41.73
2019-04-29T00:02:42.919Z,40.20
2019-04-29T00:05:11.971Z,47.43
2019-04-29T00:07:43.764Z,49.93
2019-04-29T00:10:16.325Z,47.03
2019-04-29T00:12:45.241Z,51.67
2019-04-29T00:15:17.294Z,50.53
2019-04-29T00:17:53.311Z,46.47
2019-04-29T00:20:30.109Z,46.93
2019-04-29T00:22:59.509Z,47.33
2019-04-29T00:25:30.103Z,46.77
2019-04-29T00:27:59.819Z,49.93
2019-04-29T00:30:29.234Z,54.07
2019-04-29T00:32:57.862Z,49.87
2019-04-29T00:35:26.640Z,51.83
2019-04-29T00:38:02.289Z,47.10
2019-04-29T00:40:39.140Z,45.70
2019-04-29T00:43:12.969Z,46.10
2019-04-29T00:45:43.252Z,55.70
2019-04-29T00:48:12.010Z,69.20
2019-04-29T00:50:40.775Z,64.00
2019-04-29T00:53:11.009Z,70.30
2019-04-29T00:55:40.925Z,75.90
2019-04-29T00:58:09.944Z,77.23
2019-04-29T01:00:41.665Z,74.43
2019-04-29T01:03:13.315Z,82.13
2019-04-29T01:05:42.607Z,76.83
2019-04-29T01:08:11.396Z,66.30
2019-04-29T01:10:41.216Z,68.13
2019-04-29T01:13:11.753Z,66.03
2019-04-29T01:15:40.333Z,68.80
2019-04-29T01:18:10.383Z,70.93
2019-04-29T01:20:39.061Z,66.40
2019-04-29T01:23:10.467Z,73.07
2019-04-29T01:25:40.897Z,73.67
2019-04-29T01:28:21.458Z,68.90
2019-04-29T01:30:55.954Z,65.07
2019-04-29T01:33:27.902Z,63.60
2019-04-29T01:36:16.013Z,70.50
2019-04-29T01:38:48.599Z,69.97
2019-04-29T01:41:25.980Z,75.13
2019-04-29T01:44:01.864Z,70.93
2019-04-29T01:46:33.902Z,70.63
2019-04-29T01:49:02.713Z,68.40
2019-04-29T01:51:32.557Z,70.33
2019-04-29T01:54:01.146Z,68.13
2019-04-29T01:56:32.089Z,66.53
2019-04-29T01:59:00.931Z,67.73
2019-04-29T02:01:29.659Z,59.27
2019-04-29T02:03:58.264Z,61.50
2019-04-29T02:06:28.074Z,65.20
2019-04-29T02:08:58.012Z,63.40
2019-04-29T02:11:26.899Z,62.37
2019-04-29T02:13:55.626Z,62.17
2019-04-29T02:16:26.013Z,58.77
2019-04-29T02:18:56.691Z,53.73
2019-04-29T02:21:25.376Z,48.63
2019-04-29T02:23:59.864Z,52.93
2019-04-29T02:26:30.005Z,50.27
2019-04-29T02:28:58.855Z,51.33
2019-04-29T02:31:38.396Z,48.03
2019-04-29T02:34:07.690Z,52.67
2019-04-29T02:36:42.748Z,53.33
2019-04-29T02:39:22.113Z,53.13
2019-04-29T02:42:08.389Z,52.67
2019-04-29T02:44:40.638Z,51.17
2019-04-29T02:47:11.291Z,54.37
2019-04-29T02:49:40.207Z,51.87
2019-04-29T02:52:10.178Z,49.93
2019-04-29T02:54:43.951Z,47.50
2019-04-29T02:57:17.600Z,55.77
2019-04-29T03:00:00.164Z,57.47
2019-04-29T03:02:30.410Z,90.93
2019-04-29T03:05:19.493Z,113.80
2019-04-29T03:07:49.872Z,109.20
2019-04-29T03:10:21.903Z,103.97
2019-04-29T03:12:50.608Z,64.20
2019-04-29T03:15:28.309Z,61.63
2019-04-29T03:17:59.962Z,99.90
2019-04-29T03:20:31.887Z,72.43
2019-04-29T03:23:14.214Z,59.30
2019-04-29T03:25:49.642Z,55.57
2019-04-29T03:28:22.415Z,52.70
2019-04-29T03:30:53.668Z,50.70
2019-04-29T03:33:22.449Z,48.87
2019-04-29T03:35:52.969Z,54.27
2019-04-29T03:38:21.683Z,51.20
2019-04-29T03:40:50.454Z,47.97
2019-04-29T03:43:19.261Z,53.17
2019-04-29T03:45:48.111Z,47.47
2019-04-29T03:48:16.849Z,48.10
2019-04-29T03:50:47.357Z,56.97
2019-04-29T03:53:16.072Z,52.50
2019-04-29T03:55:47.181Z,47.03
2019-04-29T03:58:16.329Z,50.43
2019-04-29T04:00:46.707Z,54.37
2019-04-29T04:03:27.455Z,49.03
2019-04-29T04:05:57.716Z,47.57
2019-04-29T04:08:38.959Z,44.93
2019-04-29T04:11:07.927Z,51.40
2019-04-29T04:13:38.528Z,48.27
2019-04-29T04:16:08.749Z,46.77
2019-04-29T04:18:40.679Z,44.60
2019-04-29T04:21:09.435Z,48.73
2019-04-29T04:23:41.151Z,45.57
2019-04-29T04:26:10.673Z,46.70
2019-04-29T04:28:40.738Z,45.00
2019-04-29T04:31:10.954Z,45.30
2019-04-29T04:33:41.517Z,47.63
2019-04-29T04:36:10.710Z,48.87
2019-04-29T04:38:39.380Z,43.90
2019-04-29T04:41:11.250Z,44.87
2019-04-29T04:43:39.930Z,45.23
2019-04-29T04:46:10.429Z,46.70
2019-04-29T04:48:42.117Z,50.77
2019-04-29T04:51:11.025Z,49.37
2019-04-29T04:53:39.816Z,48.67
2019-04-29T04:56:08.536Z,49.07
2019-04-29T04:58:38.621Z,49.30
2019-04-29T05:01:07.437Z,48.37
2019-04-29T05:03:36.174Z,46.13
2019-04-29T05:06:06.480Z,44.10
2019-04-29T05:08:36.110Z,44.43
2019-04-29T05:11:05.328Z,46.03
2019-04-29T05:13:35.759Z,46.30
2019-04-29T05:16:05.623Z,47.57
2019-04-29T05:18:34.803Z,47.67
2019-04-29T05:21:07.876Z,44.03
2019-04-29T05:23:37.827Z,47.63
2019-04-29T05:26:06.651Z,46.73
2019-04-29T05:28:41.282Z,46.93
2019-04-29T05:31:10.227Z,47.83
2019-04-29T05:33:43.383Z,43.40
2019-04-29T05:36:13.514Z,42.50
2019-04-29T05:38:45.187Z,44.30
2019-04-29T05:41:14.041Z,44.63
2019-04-29T05:43:45.254Z,45.80
2019-04-29T05:46:21.370Z,44.07
2019-04-29T05:48:49.110Z,47.23
2019-04-29T05:51:34.671Z,44.30
2019-04-29T05:54:07.862Z,44.40
2019-04-29T05:56:42.186Z,48.67
2019-04-29T05:59:14.015Z,46.63
2019-04-29T06:01:47.279Z,44.83
2019-04-29T06:04:19.898Z,43.93
2019-04-29T06:07:06.703Z,49.20
2019-04-29T06:09:35.686Z,42.83
2019-04-29T06:12:05.799Z,43.20
2019-04-29T06:14:37.147Z,44.80
2019-04-29T06:17:07.815Z,46.97
2019-04-29T06:19:39.323Z,41.33
2019-04-29T06:22:10.173Z,40.43
2019-04-29T06:24:42.247Z,38.77
2019-04-29T06:27:13.688Z,40.27
2019-04-29T06:30:02.879Z,43.10
2019-04-29T06:32:29.800Z,37.73
2019-04-29T06:35:00.643Z,34.00
2019-04-29T06:37:30.012Z,34.27
2019-04-29T06:40:02.342Z,37.63
2019-04-29T06:42:37.661Z,38.83
2019-04-29T06:45:08.356Z,42.33
2019-04-29T06:47:40.678Z,39.80
2019-04-29T06:50:14.861Z,42.40
2019-04-29T06:52:52.174Z,56.47
2019-04-29T06:55:21.901Z,54.67
2019-04-29T06:57:52.493Z,34.47
2019-04-29T07:00:28.815Z,38.47
2019-04-29T07:03:00.263Z,36.77
2019-04-29T07:05:29.869Z,34.03
2019-04-29T07:08:01.204Z,35.23
2019-04-29T07:10:30.405Z,37.77
2019-04-29T07:12:59.982Z,34.57
2019-04-29T07:15:31.127Z,33.03
2019-04-29T07:18:00.172Z,32.43
2019-04-29T07:20:32.563Z,36.37
2019-04-29T07:23:03.920Z,32.00
2019-04-29T07:25:37.722Z,48.43
2019-04-29T07:28:07.327Z,36.77
2019-04-29T07:30:59.233Z,39.50
2019-04-29T07:33:09.856Z,45.97
2019-04-29T07:35:43.144Z,34.93
2019-04-29T07:38:11.906Z,35.40
2019-04-29T07:40:43.370Z,30.60
2019-04-29T07:43:14.004Z,33.97
2019-04-29T07:45:58.922Z,35.20
2019-04-29T07:48:27.030Z,35.73
2019-04-29T07:50:59.412Z,35.50
2019-04-29T07:53:35.203Z,30.37
2019-04-29T07:56:05.799Z,29.57
2019-04-29T07:58:31.992Z,31.77
2019-04-29T08:01:10.830Z,36.47
2019-04-29T08:03:39.597Z,31.77
2019-04-29T08:06:10.062Z,29.97
2019-04-29T08:08:40.260Z,26.77
2019-04-29T08:11:11.691Z,46.43
2019-04-29T08:13:42.804Z,51.23
2019-04-29T08:16:16.714Z,30.97
2019-04-29T08:18:43.375Z,26.00
2019-04-29T08:21:16.730Z,28.90
2019-04-29T08:23:51.333Z,31.43
2019-04-29T08:26:20.606Z,33.20
2019-04-29T08:28:52.983Z,28.70
2019-04-29T08:31:22.246Z,28.70
2019-04-29T08:33:51.303Z,27.63
2019-04-29T08:36:22.418Z,24.83
2019-04-29T08:38:53.740Z,28.57
2019-04-29T08:41:28.491Z,28.73
2019-04-29T08:44:16.351Z,25.73
2019-04-29T08:46:52.035Z,30.77
2019-04-29T08:49:26.023Z,23.73
2019-04-29T08:51:56.187Z,27.07
2019-04-29T08:54:25.427Z,28.10
2019-04-29T08:57:02.900Z,27.70
2019-04-29T08:59:27.211Z,26.20
2019-04-29T09:01:58.255Z,24.60
2019-04-29T09:04:33.256Z,28.47
2019-04-29T09:07:12.464Z,24.20
2019-04-29T09:09:44.633Z,31.47
2019-04-29T09:12:19.265Z,53.30
2019-04-29T09:14:47.135Z,28.20
2019-04-29T09:17:20.545Z,27.57
2019-04-29T09:19:50.490Z,23.33
2019-04-29T09:22:27.058Z,25.93
2019-04-29T09:25:13.002Z,30.90
2019-04-29T09:27:47.691Z,26.13
2019-04-29T09:30:17.779Z,25.67
2019-04-29T09:32:47.424Z,28.90
2019-04-29T09:35:20.098Z,23.07
2019-04-29T09:37:58.393Z,23.20
2019-04-29T09:40:30.063Z,25.87
2019-04-29T09:43:14.546Z,52.07
2019-04-29T09:45:47.403Z,41.57
2019-04-29T09:48:27.786Z,27.23
2019-04-29T09:50:58.914Z,22.57
2019-04-29T09:53:32.004Z,22.60
2019-04-29T09:56:03.633Z,21.13
2019-04-29T09:58:33.046Z,23.37
2019-04-29T10:01:20.921Z,25.73
2019-04-29T10:03:57.193Z,23.97
2019-04-29T10:06:37.258Z,25.73
2019-04-29T10:09:13.151Z,21.70
2019-04-29T10:11:46.853Z,24.57
2019-04-29T10:14:20.216Z,21.17
2019-04-29T10:16:55.466Z,29.03
2019-04-29T10:19:38.656Z,25.33
2019-04-29T10:22:08.228Z,23.27
2019-04-29T10:24:37.637Z,42.17
2019-04-29T10:27:11.024Z,55.27
2019-04-29T10:29:55.257Z,23.40
2019-04-29T10:32:30.717Z,24.20
2019-04-29T10:35:03.710Z,25.87
2019-04-29T10:40:33.679Z,22.30
2019-04-29T10:46:23.787Z,27.03
2019-04-29T10:48:59.206Z,31.37
2019-04-29T10:51:31.393Z,26.00
2019-04-29T10:54:06.376Z,34.70
2019-04-29T10:56:39.301Z,24.80
2019-04-29T10:59:11.164Z,25.37
2019-04-29T11:02:09.153Z,22.93
2019-04-29T11:04:36.329Z,25.37
2019-04-29T11:07:27.547Z,25.40
2019-04-29T11:10:00.064Z,25.60
2019-04-29T11:12:30.918Z,23.10
2019-04-29T11:15:04.260Z,29.70
2019-04-29T11:17:39.822Z,25.33
2019-04-29T11:20:15.739Z,33.43
2019-04-29T11:22:44.831Z,29.03
2019-04-29T11:25:19.124Z,22.40
2019-04-29T11:27:51.326Z,22.40
2019-04-29T11:30:25.361Z,23.03
2019-04-29T11:33:09.574Z,35.97
2019-04-29T11:35:44.492Z,35.43
2019-04-29T11:38:16.230Z,33.47
2019-04-29T11:40:46.244Z,22.97
2019-04-29T11:43:18.832Z,21.80
2019-04-29T11:45:56.062Z,43.70
2019-04-29T11:48:26.940Z,29.47
2019-04-29T11:51:00.135Z,30.03
2019-04-29T11:53:29.917Z,24.47
2019-04-29T11:56:00.290Z,30.80
2019-04-29T11:58:34.174Z,33.17
2019-04-29T12:01:08.439Z,31.87
2019-04-29T12:03:40.044Z,23.77
2019-04-29T12:06:16.227Z,21.77
2019-04-29T12:08:53.029Z,23.67
2019-04-29T12:11:20.116Z,25.03
2019-04-29T12:13:52.106Z,22.03
2019-04-29T12:16:29.853Z,21.50
2019-04-29T12:19:17.112Z,24.67
2019-04-29T12:21:47.694Z,26.43
2019-04-29T12:24:16.767Z,27.23
2019-04-29T12:26:48.162Z,22.10
2019-04-29T12:29:19.484Z,22.07
2019-04-29T12:31:57.103Z,21.10
2019-04-29T12:34:45.026Z,24.80
2019-04-29T12:37:25.687Z,24.77
2019-04-29T12:40:14.467Z,19.40
2019-04-29T12:43:00.034Z,24.30
2019-04-29T12:45:40.490Z,21.87
2019-04-29T12:48:23.459Z,18.40
2019-04-29T12:50:43.844Z,20.67
2019-04-29T12:53:12.761Z,17.93
2019-04-29T12:55:49.011Z,23.07
2019-04-29T12:58:19.438Z,22.00
2019-04-29T13:01:00.940Z,19.43
2019-04-29T13:03:39.700Z,22.87
2019-04-29T13:06:11.531Z,22.77
2019-04-29T13:08:47.999Z,17.97
2019-04-29T13:11:22.357Z,18.33
2019-04-29T13:14:01.789Z,21.83
2019-04-29T13:16:31.744Z,18.43
2019-04-29T13:19:11.404Z,18.73
2019-04-29T13:21:39.496Z,19.53
2019-04-29T13:24:23.556Z,21.40
2019-04-29T13:26:47.399Z,18.70
2019-04-29T13:29:26.994Z,21.27
2019-04-29T13:31:51.488Z,22.97
2019-04-29T13:34:30.997Z,23.63
2019-04-29T13:37:06.622Z,23.50
2019-04-29T13:39:39.005Z,19.20
2019-04-29T13:42:09.061Z,21.27
2019-04-29T13:47:35.291Z,19.83
2019-04-29T13:50:38.196Z,24.17
2019-04-29T13:52:57.803Z,22.90
2019-04-29T13:55:47.260Z,19.90
2019-04-29T13:58:00.304Z,22.70
2019-04-29T14:00:32.619Z,18.67
2019-04-29T14:03:07.206Z,19.63
2019-04-29T14:05:37.798Z,18.10
2019-04-29T14:08:06.778Z,23.00
2019-04-29T14:10:37.204Z,23.83
2019-04-29T14:13:15.143Z,18.60
2019-04-29T14:15:40.478Z,17.93
2019-04-29T14:18:11.604Z,19.70
2019-04-29T14:20:40.289Z,25.63
2019-04-29T14:23:10.286Z,26.47
2019-04-29T14:25:42.187Z,19.77
2019-04-29T14:28:13.115Z,23.00
2019-04-29T14:30:43.750Z,23.03
2019-04-29T14:33:12.492Z,19.13
2019-04-29T14:35:43.725Z,16.13
2019-04-29T14:38:20.103Z,21.80
2019-04-29T14:40:49.219Z,24.07
2019-04-29T14:43:39.731Z,21.37
2019-04-29T14:46:19.570Z,15.53
2019-04-29T14:49:04.217Z,15.43
2019-04-29T14:51:36.909Z,15.40
2019-04-29T14:54:08.698Z,17.20
2019-04-29T14:56:40.082Z,14.83
2019-04-29T14:59:10.001Z,14.97
2019-04-29T15:01:40.329Z,16.70
2019-04-29T15:04:18.612Z,15.47
2019-04-29T15:06:42.060Z,12.40
2019-04-29T15:09:17.695Z,14.77
2019-04-29T15:11:47.595Z,11.20
2019-04-29T15:14:31.994Z,20.20
2019-04-29T15:17:16.002Z,13.23
2019-04-29T15:19:55.392Z,15.80
2019-04-29T15:22:30.591Z,16.50
2019-04-29T15:24:59.438Z,17.60
2019-04-29T15:27:29.314Z,25.00
2019-04-29T15:29:59.250Z,20.37
2019-04-29T15:32:29.401Z,20.23
2019-04-29T15:35:05.210Z,18.23
2019-04-29T15:37:36.407Z,17.53
2019-04-29T15:40:08.262Z,18.20
2019-04-29T15:42:43.255Z,21.87
2019-04-29T15:45:09.735Z,22.93
2019-04-29T15:47:41.702Z,14.03
2019-04-29T15:50:18.720Z,20.63
2019-04-29T15:52:40.583Z,23.93
2019-04-29T15:55:10.603Z,18.70
2019-04-29T15:57:49.728Z,21.63
2019-04-29T16:00:21.833Z,41.13
2019-04-29T16:02:49.989Z,21.67
2019-04-29T16:05:20.301Z,23.80
2019-04-29T16:07:57.262Z,23.70
2019-04-29T16:10:31.129Z,19.00
2019-04-29T16:13:12.555Z,20.00
2019-04-29T16:15:42.005Z,20.13
2019-04-29T16:18:14.725Z,20.20
2019-04-29T16:20:53.296Z,22.03
2019-04-29T16:23:16.375Z,19.10
2019-04-29T16:28:18.279Z,16.80
2019-04-29T16:30:48.659Z,21.03
2019-04-29T16:33:19.131Z,22.97
2019-04-29T16:35:47.799Z,18.67
2019-04-29T16:38:18.085Z,18.33
2019-04-29T16:40:56.555Z,18.70
2019-04-29T16:43:27.675Z,19.63
2019-04-29T16:46:01.679Z,19.33
2019-04-29T16:48:33.551Z,19.17
2019-04-29T16:51:14.605Z,18.53
2019-04-29T16:53:43.534Z,21.67
2019-04-29T16:56:16.028Z,21.73
2019-04-29T16:58:45.129Z,20.50
2019-04-29T17:01:18.817Z,19.90
2019-04-29T17:03:55.488Z,27.40
2019-04-29T17:06:26.199Z,20.37
2019-04-29T17:09:05.125Z,25.67
2019-04-29T17:11:40.089Z,30.73
2019-04-29T17:14:13.029Z,26.50
2019-04-29T17:16:42.367Z,29.03
2019-04-29T17:19:15.804Z,27.63
2019-04-29T17:21:47.728Z,17.90
2019-04-29T17:24:36.183Z,23.90
2019-04-29T17:27:26.528Z,27.43
2019-04-29T17:30:11.153Z,24.23
2019-04-29T17:32:57.059Z,34.40
2019-04-29T17:35:14.119Z,20.93
2019-04-29T17:35:27.935Z,25.43
2019-04-29T17:38:06.902Z,25.80
2019-04-29T17:40:50.499Z,23.93
2019-04-29T17:43:38.191Z,26.53
2019-04-29T17:46:24.062Z,28.20
2019-04-29T17:48:55.670Z,26.27
2019-04-29T17:51:34.047Z,21.40
2019-04-29T17:54:07.217Z,25.57
2019-04-29T17:56:39.179Z,25.63
2019-04-29T17:59:15.861Z,28.70
2019-04-29T18:02:02.662Z,30.33
2019-04-29T18:04:49.620Z,32.00
2019-04-29T18:07:20.812Z,27.77
2019-04-29T18:10:05.057Z,24.77
2019-04-29T18:12:40.948Z,29.53
2019-04-29T18:15:10.668Z,33.80
2019-04-29T18:17:40.430Z,27.20
2019-04-29T18:20:30.752Z,25.30
2019-04-29T18:22:59.195Z,32.03
2019-04-29T18:25:39.823Z,28.50
2019-04-29T18:28:09.763Z,23.80
2019-04-29T18:30:44.644Z,26.53
2019-04-29T18:33:15.098Z,27.43
2019-04-29T18:35:50.748Z,25.60
2019-04-29T18:38:19.463Z,27.80
2019-04-29T18:40:49.571Z,26.23
2019-04-29T18:43:22.979Z,27.93
2019-04-29T18:45:56.263Z,34.77
2019-04-29T18:48:22.922Z,27.17
2019-04-29T18:50:52.172Z,28.93
2019-04-29T18:53:22.079Z,31.83
2019-04-29T18:55:58.005Z,28.10
2019-04-29T18:58:27.843Z,25.00
2019-04-29T19:00:57.987Z,32.07
2019-04-29T19:03:36.312Z,30.57
2019-04-29T19:06:10.042Z,28.67
2019-04-29T19:08:39.910Z,31.77
2019-04-29T19:11:12.353Z,28.83
2019-04-29T19:13:43.526Z,26.87
2019-04-29T19:16:21.578Z,33.27
2019-04-29T19:18:52.033Z,27.47
2019-04-29T19:21:30.489Z,30.87
2019-04-29T19:23:57.417Z,29.30
2019-04-29T19:26:27.653Z,30.63
2019-04-29T19:29:01.234Z,32.17
2019-04-29T19:31:29.850Z,32.20
2019-04-29T19:34:00.436Z,28.13
2019-04-29T19:36:32.539Z,28.23
2019-04-29T19:39:08.246Z,29.60
2019-04-29T19:41:38.711Z,31.23
2019-04-29T19:44:08.070Z,32.17
2019-04-29T19:46:41.285Z,34.90
2019-04-29T19:49:10.263Z,29.33
2019-04-29T19:51:43.583Z,24.70
2019-04-29T19:54:16.972Z,33.03
2019-04-29T19:56:55.562Z,26.77
2019-04-29T19:59:21.684Z,30.97
2019-04-29T20:01:56.318Z,33.10
2019-04-29T20:04:33.511Z,32.93
2019-04-29T20:07:08.746Z,33.73
2019-04-29T20:09:34.311Z,30.63
2019-04-29T20:14:59.744Z,38.10
2019-04-29T20:17:30.999Z,33.10
2019-04-29T20:20:12.126Z,37.23
2019-04-29T20:22:43.506Z,35.73
2019-04-29T20:25:12.398Z,38.00
2019-04-29T20:27:43.470Z,34.40
2019-04-29T20:30:17.594Z,37.07
2019-04-29T20:32:46.046Z,35.13
2019-04-29T20:35:18.296Z,36.87
2019-04-29T20:37:55.640Z,37.53
2019-04-29T20:40:23.241Z,34.63
2019-04-29T20:42:54.333Z,34.87
2019-04-29T20:45:27.213Z,40.70
2019-04-29T20:47:53.563Z,39.23
2019-04-29T20:50:27.581Z,37.50
2019-04-29T20:53:02.269Z,42.37
2019-04-29T20:55:31.983Z,39.23
2019-04-29T20:58:03.706Z,36.20
2019-04-29T21:00:37.277Z,40.40
2019-04-29T21:03:09.325Z,38.53
2019-04-29T21:05:48.281Z,40.67
2019-04-29T21:08:16.523Z,42.17
2019-04-29T21:10:46.717Z,34.03
2019-04-29T21:13:20.314Z,33.63
2019-04-29T21:15:53.767Z,33.20
2019-04-29T21:18:22.831Z,33.83
2019-04-29T21:20:55.042Z,32.83
2019-04-29T21:23:24.922Z,38.10
2019-04-29T21:25:55.989Z,30.90
2019-04-29T21:28:25.377Z,33.23
2019-04-29T21:30:55.956Z,37.07
2019-04-29T21:33:25.537Z,33.57
2019-04-29T21:36:15.501Z,35.53
2019-04-29T21:39:01.448Z,32.93
2019-04-29T21:41:38.794Z,36.33
2019-04-29T21:44:06.473Z,34.13
2019-04-29T21:46:37.360Z,34.93
2019-04-29T21:49:11.457Z,36.30
2019-04-29T21:51:41.721Z,34.93
2019-04-29T21:54:14.205Z,38.20
2019-04-29T21:56:47.819Z,31.20
2019-04-29T21:59:15.772Z,29.60
2019-04-29T22:01:46.090Z,30.27
2019-04-29T22:04:15.175Z,35.53
2019-04-29T22:06:45.850Z,34.87
2019-04-29T22:09:17.551Z,36.47
2019-04-29T22:11:46.984Z,32.30
2019-04-29T22:14:16.996Z,37.50
2019-04-29T22:16:47.605Z,36.83
2019-04-29T22:19:17.643Z,31.07
2019-04-29T22:21:52.769Z,35.30
2019-04-29T22:24:26.280Z,33.13
2019-04-29T22:26:56.474Z,35.17
2019-04-29T22:29:27.353Z,31.33
2019-04-29T22:31:57.763Z,33.90
2019-04-29T22:34:30.837Z,30.20
2019-04-29T22:37:05.374Z,32.73
2019-04-29T22:39:35.532Z,30.60
2019-04-29T22:42:08.622Z,31.17
2019-04-29T22:44:40.199Z,29.53
2019-04-29T22:47:10.950Z,36.03
2019-04-29T22:49:41.114Z,28.67
2019-04-29T22:52:09.731Z,31.80
2019-04-29T22:54:39.030Z,29.60
2019-04-29T22:57:07.870Z,31.37
2019-04-29T22:59:39.315Z,33.00
2019-04-29T23:02:12.917Z,31.80
2019-04-29T23:04:41.630Z,35.97
2019-04-29T23:07:17.628Z,33.87
2019-04-29T23:09:47.987Z,41.03
2019-04-29T23:12:18.580Z,38.03
2019-04-29T23:14:51.334Z,35.70
2019-04-29T23:17:22.556Z,37.27
2019-04-29T23:19:53.330Z,37.23
2019-04-29T23:22:26.315Z,42.17
2019-04-29T23:25:05.565Z,39.30
2019-04-29T23:27:36.045Z,39.00
2019-04-29T23:30:13.536Z,36.97
2019-04-29T23:32:44.269Z,33.23
2019-04-29T23:35:12.471Z,36.27
2019-04-29T23:37:42.452Z,37.23
2019-04-29T23:40:11.395Z,36.97
2019-04-29T23:42:43.653Z,38.20
2019-04-29T23:45:14.576Z,39.23
2019-04-29T23:47:49.284Z,35.63
2019-04-29T23:50:20.289Z,37.87
2019-04-29T23:52:51.954Z,38.00
2019-04-29T23:55:24.938Z,37.07
2019-04-29T23:57:55.531Z,41.27
